Time;durP1;ratioP1;P1;durP2;ratioP2;P2;SDS_P1;SDS_P2;PMS_P1;PMS_P2;Temp;Humidity;BMP_temperature;BMP_pressure;BME280_temperature;BME280_humidity;BME280_pressure;Samples;Min_cycle;Max_cycle;Signal;HPM_P1;HPM_P2
2022/06/30 00:01:40;;;;;;;1.23;1.03;;;18.90;99.90;;;;;;4974799;28;20438;-81
2022/06/30 00:04:07;;;;;;;1.00;1.00;;;18.90;99.90;;;;;;4974736;28;20464;-81
2022/06/30 00:06:34;;;;;;;1.07;0.77;;;18.90;99.90;;;;;;4974652;28;20887;-81
2022/06/30 00:09:00;;;;;;;1.07;0.80;;;18.80;99.90;;;;;;4974201;28;20488;-80
2022/06/30 00:11:29;;;;;;;2.13;1.40;;;18.80;99.90;;;;;;4974642;28;20453;-81
2022/06/30 00:13:57;;;;;;;1.10;0.90;;;18.80;99.90;;;;;;4974597;28;20968;-81
2022/06/30 00:16:24;;;;;;;0.93;0.93;;;18.80;99.90;;;;;;4974706;28;20469;-81
2022/06/30 00:18:50;;;;;;;1.30;1.20;;;18.80;99.90;;;;;;4974524;28;20480;-80
2022/06/30 00:21:17;;;;;;;1.73;1.27;;;18.80;99.90;;;;;;4974542;28;20449;-81
2022/06/30 00:23:44;;;;;;;2.17;1.13;;;18.80;99.90;;;;;;4974283;28;20810;-81
2022/06/30 00:26:11;;;;;;;1.43;1.20;;;18.80;99.90;;;;;;4974145;28;20976;-81
2022/06/30 00:28:39;;;;;;;0.80;0.67;;;18.70;99.90;;;;;;4974495;28;20442;-81
2022/06/30 00:31:06;;;;;;;0.80;0.80;;;18.70;99.90;;;;;;4974464;28;20461;-81
2022/06/30 00:33:32;;;;;;;0.93;0.90;;;18.70;99.90;;;;;;4974476;28;20445;-81
2022/06/30 00:35:59;;;;;;;1.10;1.00;;;18.70;99.90;;;;;;4974343;28;20466;-81
2022/06/30 00:38:26;;;;;;;0.80;0.80;;;18.70;99.90;;;;;;4974025;28;21009;-80
2022/06/30 00:40:52;;;;;;;1.23;1.03;;;18.70;99.90;;;;;;4974388;28;20794;-81
2022/06/30 00:43:19;;;;;;;1.70;1.30;;;18.70;99.90;;;;;;4974338;28;20457;-81
2022/06/30 00:45:49;;;;;;;1.00;0.90;;;18.70;99.90;;;;;;4974075;28;20560;-81
2022/06/30 00:48:18;;;;;;;1.53;1.00;;;18.70;99.90;;;;;;4974466;28;20460;-81
2022/06/30 00:50:45;;;;;;;3.07;1.00;;;18.70;99.90;;;;;;4974018;28;20453;-80
2022/06/30 00:53:12;;;;;;;0.77;0.77;;;18.70;99.90;;;;;;4974805;28;20453;-81
2022/06/30 00:55:40;;;;;;;1.73;1.23;;;18.70;99.90;;;;;;4974172;28;20484;-81
2022/06/30 00:58:09;;;;;;;3.10;1.00;;;18.60;99.90;;;;;;4973890;28;20477;-81
2022/06/30 01:00:38;;;;;;;1.00;0.97;;;18.60;99.90;;;;;;4974062;28;20941;-81
2022/06/30 01:03:07;;;;;;;1.47;1.20;;;18.60;99.90;;;;;;4975021;28;20445;-81
2022/06/30 01:05:34;;;;;;;0.70;0.70;;;18.50;99.90;;;;;;4977553;28;20473;-81
2022/06/30 01:08:03;;;;;;;1.00;1.00;;;18.50;99.90;;;;;;4977497;28;20942;-81
2022/06/30 01:13:14;;;;;;;1.60;1.30;;;18.50;99.90;;;;;;4958497;29;20418;-81
2022/06/30 01:15:40;;;;;;;3.07;1.10;;;18.50;99.90;;;;;;4958320;28;20479;-80
2022/06/30 01:18:08;;;;;;;1.40;0.90;;;18.40;99.90;;;;;;4958383;29;20490;-81
2022/06/30 01:20:35;;;;;;;0.80;0.80;;;18.40;99.90;;;;;;4958274;29;20457;-81
2022/06/30 01:23:04;;;;;;;1.10;1.00;;;18.40;99.90;;;;;;4958267;29;20450;-81
2022/06/30 01:25:32;;;;;;;1.43;1.23;;;18.30;99.90;;;;;;4957886;28;20462;-80
2022/06/30 01:27:59;;;;;;;1.30;1.10;;;18.30;99.90;;;;;;4958167;29;20454;-81
2022/06/30 01:30:26;;;;;;;1.10;0.93;;;18.30;99.90;;;;;;4958177;29;20458;-81
2022/06/30 01:32:53;;;;;;;1.17;0.90;;;18.30;99.90;;;;;;4957858;29;20434;-81
2022/06/30 01:35:20;;;;;;;1.00;0.90;;;18.30;99.90;;;;;;4957635;28;20847;-81
2022/06/30 01:37:49;;;;;;;1.00;1.00;;;18.30;99.90;;;;;;4958004;29;20454;-81
2022/06/30 01:40:19;;;;;;;1.60;1.07;;;18.20;99.90;;;;;;4957635;29;20949;-80
2022/06/30 01:42:46;;;;;;;0.67;0.67;;;18.20;99.90;;;;;;4957632;29;20836;-81
2022/06/30 01:45:13;;;;;;;1.70;0.80;;;18.20;99.90;;;;;;4957511;28;20938;-81
2022/06/30 01:47:40;;;;;;;1.50;0.80;;;18.20;99.90;;;;;;4957834;29;20473;-81
2022/06/30 01:50:14;;;;;;;1.00;1.00;;;18.20;99.90;;;;;;4957538;29;20442;-81
2022/06/30 01:52:41;;;;;;;1.47;0.90;;;18.10;99.90;;;;;;4957920;29;20439;-81
2022/06/30 01:55:09;;;;;;;1.20;0.90;;;18.10;99.90;;;;;;4957625;28;20457;-81
2022/06/30 01:57:38;;;;;;;2.40;0.83;;;18.10;99.90;;;;;;4957644;29;20454;-81
2022/06/30 02:00:07;;;;;;;1.50;1.23;;;18.10;99.90;;;;;;4957275;29;20486;-81
2022/06/30 02:02:33;;;;;;;1.73;1.00;;;18.00;99.90;;;;;;4957709;29;20773;-81
2022/06/30 02:05:00;;;;;;;1.33;1.10;;;18.00;99.90;;;;;;4957110;28;20973;-81
2022/06/30 02:07:28;;;;;;;2.10;1.03;;;18.00;99.90;;;;;;4957503;29;20450;-81
2022/06/30 02:09:54;;;;;;;1.23;1.10;;;18.00;99.90;;;;;;4971954;28;20477;-81
2022/06/30 02:15:11;;;;;;;0.87;0.80;;;17.90;99.90;;;;;;4975494;28;20401;-81
2022/06/30 02:17:38;;;;;;;1.43;1.17;;;17.90;99.90;;;;;;4976647;28;20444;-81
2022/06/30 02:20:07;;;;;;;1.63;1.03;;;17.90;99.90;;;;;;4976481;28;20491;-81
2022/06/30 02:22:33;;;;;;;1.03;0.80;;;17.90;99.90;;;;;;4976209;28;20969;-81
2022/06/30 02:25:00;;;;;;;4.03;0.90;;;17.90;99.90;;;;;;4976081;28;20456;-81
2022/06/30 02:27:27;;;;;;;1.97;1.17;;;17.80;99.90;;;;;;4976420;28;20449;-81
2022/06/30 02:29:54;;;;;;;2.20;1.07;;;17.80;99.90;;;;;;4976380;28;20456;-81
2022/06/30 02:32:22;;;;;;;1.07;0.97;;;17.80;99.90;;;;;;4976316;28;20472;-81
2022/06/30 02:34:50;;;;;;;0.80;0.80;;;17.80;99.90;;;;;;4975963;28;21133;-81
2022/06/30 02:37:17;;;;;;;2.10;1.17;;;17.80;99.90;;;;;;4976175;28;20469;-81
2022/06/30 02:39:45;;;;;;;2.47;1.10;;;17.70;99.90;;;;;;4976357;28;20492;-81
2022/06/30 02:42:11;;;;;;;1.20;1.00;;;17.70;99.90;;;;;;4976144;28;20813;-81
2022/06/30 02:44:38;;;;;;;4.10;1.43;;;17.70;99.90;;;;;;4975853;28;20444;-81
2022/06/30 02:47:05;;;;;;;0.70;0.70;;;17.70;99.90;;;;;;4975684;28;20480;-81
2022/06/30 02:49:33;;;;;;;0.70;0.70;;;17.60;99.90;;;;;;4975993;28;20449;-81
2022/06/30 02:52:00;;;;;;;1.00;0.80;;;17.60;99.90;;;;;;4975957;28;20445;-81
2022/06/30 02:54:27;;;;;;;2.37;1.20;;;17.60;99.90;;;;;;4975672;28;20448;-80
2022/06/30 02:56:53;;;;;;;1.20;0.77;;;17.60;99.90;;;;;;4975773;28;20492;-80
2022/06/30 02:59:20;;;;;;;0.80;0.80;;;17.60;99.90;;;;;;4975429;28;21001;-81
2022/06/30 03:01:47;;;;;;;2.13;1.10;;;17.50;99.90;;;;;;4975729;28;20458;-81
2022/06/30 03:04:14;;;;;;;1.60;0.80;;;17.50;99.90;;;;;;4975660;28;20969;-81
2022/06/30 03:06:42;;;;;;;1.17;0.80;;;17.60;99.90;;;;;;4975948;28;20488;-81
2022/06/30 03:09:09;;;;;;;1.80;1.10;;;17.60;99.90;;;;;;4975301;28;20478;-81
2022/06/30 03:11:36;;;;;;;0.50;0.50;;;17.50;99.90;;;;;;4975281;28;20456;-81
2022/06/30 03:14:02;;;;;;;0.77;0.77;;;17.50;99.90;;;;;;4975207;28;20823;-81
2022/06/30 03:16:29;;;;;;;1.47;0.70;;;17.50;99.90;;;;;;4975126;28;20996;-81
2022/06/30 03:18:56;;;;;;;0.90;0.90;;;17.50;99.90;;;;;;4975392;28;20481;-81
2022/06/30 03:21:23;;;;;;;0.80;0.80;;;17.40;99.90;;;;;;4975422;28;20449;-81
2022/06/30 03:23:51;;;;;;;1.20;0.80;;;17.40;99.90;;;;;;4975395;28;20445;-81
2022/06/30 03:26:18;;;;;;;2.70;1.30;;;17.40;99.90;;;;;;4974756;28;20872;-81
2022/06/30 03:28:44;;;;;;;2.03;0.97;;;17.30;99.90;;;;;;4975316;28;20480;-81
2022/06/30 03:31:11;;;;;;;0.83;0.70;;;17.30;99.90;;;;;;4974938;28;20483;-81
2022/06/30 03:33:38;;;;;;;0.87;0.70;;;17.30;99.90;;;;;;4974904;28;20981;-81
2022/06/30 03:36:05;;;;;;;1.07;0.70;;;17.30;99.90;;;;;;4974772;28;20846;-81
2022/06/30 03:38:32;;;;;;;2.70;1.00;;;17.30;99.90;;;;;;4975015;28;20445;-81
2022/06/30 03:41:00;;;;;;;5.40;1.80;;;17.40;99.90;;;;;;4975301;28;20458;-81
2022/06/30 03:43:27;;;;;;;1.10;1.00;;;17.40;99.90;;;;;;4974758;28;20952;-81
2022/06/30 03:45:54;;;;;;;1.47;1.10;;;17.30;99.90;;;;;;4974953;28;20507;-81
2022/06/30 03:48:21;;;;;;;2.00;1.23;;;17.40;99.90;;;;;;4975246;28;20457;-81
2022/06/30 03:50:47;;;;;;;0.60;0.50;;;17.40;99.90;;;;;;4974972;28;20446;-81
2022/06/30 03:53:14;;;;;;;0.90;0.90;;;17.40;99.90;;;;;;4974880;28;20454;-81
2022/06/30 03:55:41;;;;;;;0.90;0.80;;;17.50;99.90;;;;;;4974487;28;20993;-80
2022/06/30 03:58:09;;;;;;;0.90;0.83;;;17.50;99.90;;;;;;4974849;28;20456;-81
2022/06/30 04:00:36;;;;;;;2.93;1.00;;;17.60;99.90;;;;;;4974511;28;20481;-81
2022/06/30 04:03:03;;;;;;;2.40;0.97;;;17.60;99.90;;;;;;4974798;28;20440;-81
2022/06/30 04:05:30;;;;;;;2.73;0.70;;;17.70;99.90;;;;;;4974662;28;20484;-81
2022/06/30 04:07:57;;;;;;;0.83;0.80;;;17.70;99.90;;;;;;4974457;28;20445;-81
2022/06/30 04:10:24;;;;;;;1.10;1.00;;;17.80;99.90;;;;;;4974254;28;20481;-80
2022/06/30 04:12:51;;;;;;;1.37;0.70;;;17.80;99.90;;;;;;4974644;28;20456;-81
2022/06/30 04:15:19;;;;;;;1.03;1.03;;;17.90;99.90;;;;;;4974551;28;20456;-81
2022/06/30 04:17:45;;;;;;;1.10;1.00;;;17.90;99.90;;;;;;4975091;28;20442;-81
2022/06/30 04:20:16;;;;;;;1.17;1.07;;;17.90;99.90;;;;;;4974502;28;20488;-78
2022/06/30 04:22:44;;;;;;;1.63;1.50;;;17.90;99.90;;;;;;4974608;28;20846;-80
2022/06/30 04:25:12;;;;;;;1.67;1.47;;;17.90;99.90;;;;;;4974430;28;20457;-81
2022/06/30 04:27:43;;;;;;;1.63;1.27;;;17.90;99.90;;;;;;4974514;28;20512;-81
2022/06/30 04:30:11;;;;;;;1.20;0.80;;;18.00;99.90;;;;;;4974545;28;20433;-80
2022/06/30 04:32:38;;;;;;;1.13;0.93;;;18.00;99.90;;;;;;4974469;28;20904;-80
2022/06/30 04:35:06;;;;;;;4.60;1.30;;;18.00;99.90;;;;;;4974129;28;20536;-81
2022/06/30 04:37:33;;;;;;;0.80;0.80;;;18.10;99.90;;;;;;4974104;28;20461;-80
2022/06/30 04:42:44;;;;;;;1.60;1.50;;;18.10;99.90;;;;;;4978452;28;20404;-81
2022/06/30 04:45:11;;;;;;;3.03;1.60;;;18.20;99.90;;;;;;4978167;28;20464;-81
2022/06/30 04:47:39;;;;;;;2.90;0.90;;;18.20;99.90;;;;;;4977984;28;20441;-81
2022/06/30 04:50:07;;;;;;;0.80;0.80;;;18.20;99.90;;;;;;4978200;28;20440;-81
2022/06/30 04:52:35;;;;;;;1.47;1.37;;;18.20;99.90;;;;;;4978157;28;20461;-80
2022/06/30 04:55:01;;;;;;;2.50;2.03;;;18.30;99.90;;;;;;4978020;28;20449;-81
2022/06/30 04:57:28;;;;;;;2.20;1.07;;;18.30;99.90;;;;;;4978073;28;20454;-81
2022/06/30 04:59:55;;;;;;;1.10;0.90;;;18.30;99.90;;;;;;4977962;28;20500;-81
2022/06/30 05:02:22;;;;;;;1.20;1.10;;;18.40;99.90;;;;;;4978206;28;20460;-81
2022/06/30 05:04:50;;;;;;;1.33;1.23;;;18.50;99.90;;;;;;4977702;28;20965;-81
2022/06/30 05:07:17;;;;;;;1.63;1.30;;;18.50;99.90;;;;;;4978022;28;20465;-81
2022/06/30 05:09:44;;;;;;;2.00;1.00;;;18.50;99.90;;;;;;4977467;28;20888;-80
2022/06/30 05:12:11;;;;;;;0.90;0.90;;;18.60;99.90;;;;;;4977782;28;20453;-81
2022/06/30 05:14:38;;;;;;;1.20;1.03;;;18.60;99.90;;;;;;4977730;28;20457;-81
2022/06/30 05:17:05;;;;;;;1.00;0.80;;;18.70;99.90;;;;;;4977624;28;20473;-80
2022/06/30 05:19:32;;;;;;;1.60;1.40;;;18.80;99.90;;;;;;4978113;28;20480;-80
2022/06/30 05:22:01;;;;;;;1.10;1.10;;;18.80;99.90;;;;;;4977337;28;20437;-81
2022/06/30 05:27:13;;;;;;;1.47;1.00;;;18.90;99.90;;;;;;4977343;28;20488;-81
2022/06/30 05:29:40;;;;;;;1.50;1.40;;;19.00;99.90;;;;;;4977162;28;20453;-81
2022/06/30 05:32:08;;;;;;;1.20;1.20;;;19.10;99.90;;;;;;4978275;28;20473;-80
2022/06/30 05:34:35;;;;;;;1.10;1.00;;;19.20;99.90;;;;;;4977632;28;20453;-81
2022/06/30 05:37:03;;;;;;;3.57;1.37;;;19.30;99.90;;;;;;4977057;28;20545;-81
2022/06/30 05:39:31;;;;;;;1.27;1.27;;;19.40;99.90;;;;;;4977060;28;20495;-81
2022/06/30 05:41:58;;;;;;;1.27;1.07;;;19.60;99.90;;;;;;4976991;28;20445;-81
2022/06/30 05:44:24;;;;;;;1.20;1.10;;;19.70;99.90;;;;;;4977230;28;20972;-81
2022/06/30 05:46:51;;;;;;;2.60;1.63;;;19.70;99.90;;;;;;4976827;28;20469;-81
2022/06/30 05:49:18;;;;;;;2.03;1.00;;;19.80;99.90;;;;;;4976598;28;20441;-81
2022/06/30 05:51:45;;;;;;;2.30;1.30;;;19.80;99.90;;;;;;4976844;28;20773;-81
2022/06/30 05:54:13;;;;;;;1.20;1.07;;;19.90;99.90;;;;;;4976767;28;20449;-80
2022/06/30 05:56:40;;;;;;;1.70;1.60;;;20.00;99.90;;;;;;4977018;28;20516;-81
2022/06/30 05:59:07;;;;;;;2.23;0.90;;;20.20;99.90;;;;;;4976920;28;20441;-81
2022/06/30 06:01:34;;;;;;;2.30;1.20;;;20.30;99.90;;;;;;4977745;28;20516;-80
2022/06/30 06:04:01;;;;;;;1.30;1.20;;;20.50;99.90;;;;;;4976885;28;20464;-81
2022/06/30 06:06:28;;;;;;;1.83;1.73;;;20.70;99.90;;;;;;4976789;28;20549;-81
2022/06/30 06:08:54;;;;;;;1.40;1.30;;;20.80;99.90;;;;;;4976467;28;20484;-81
2022/06/30 06:11:23;;;;;;;2.83;1.17;;;21.00;99.90;;;;;;4976467;28;20445;-81
2022/06/30 06:13:49;;;;;;;1.53;1.20;;;21.20;99.90;;;;;;4976721;28;20452;-81
2022/06/30 06:16:16;;;;;;;2.50;1.30;;;21.50;99.90;;;;;;4976611;28;20491;-81
2022/06/30 06:18:43;;;;;;;2.47;1.40;;;21.60;99.90;;;;;;4976604;28;20457;-81
2022/06/30 06:21:09;;;;;;;1.40;1.30;;;22.00;99.90;;;;;;4976391;28;20493;-81
2022/06/30 06:23:36;;;;;;;1.17;1.10;;;22.30;99.90;;;;;;4976317;28;20193;-82
2022/06/30 06:26:03;;;;;;;2.30;1.63;;;22.50;99.90;;;;;;4976086;28;20744;-81
2022/06/30 06:31:15;;;;;;;1.67;1.58;;;23.30;99.90;;;;;;4976217;28;20189;-81
2022/06/30 06:33:43;;;;;;;1.83;1.73;;;24.20;99.90;;;;;;4976395;28;20211;-82
2022/06/30 06:36:10;;;;;;;1.42;1.42;;;24.60;99.90;;;;;;4976226;28;20275;-81
2022/06/30 06:38:37;;;;;;;2.70;1.48;;;25.00;99.90;;;;;;4975957;28;20685;-81
2022/06/30 06:41:07;;;;;;;1.63;1.48;;;25.20;99.90;;;;;;4975815;28;20232;-82
2022/06/30 06:43:36;;;;;;;1.40;1.13;;;25.40;99.90;;;;;;4976140;28;20209;-81
2022/06/30 06:46:02;;;;;;;3.92;1.90;;;25.30;99.90;;;;;;4976040;28;20236;-82
2022/06/30 06:48:29;;;;;;;1.80;1.48;;;25.50;99.90;;;;;;4976378;28;20206;-81
2022/06/30 06:50:56;;;;;;;1.50;1.40;;;25.50;99.90;;;;;;4976027;28;20213;-81
2022/06/30 06:53:23;;;;;;;8.15;2.08;;;25.60;99.90;;;;;;4975720;28;20206;-81
2022/06/30 06:55:49;;;;;;;1.60;1.50;;;25.70;99.90;;;;;;4975904;28;20233;-81
2022/06/30 06:58:16;;;;;;;1.67;1.35;;;25.80;99.90;;;;;;4975866;28;20209;-81
2022/06/30 07:00:44;;;;;;;2.88;1.70;;;25.90;99.90;;;;;;4974845;28;20598;-81
2022/06/30 07:03:12;;;;;;;2.90;1.60;;;25.90;99.90;;;;;;4975779;28;20209;-81
2022/06/30 07:05:39;;;;;;;1.55;1.30;;;25.80;99.90;;;;;;4975718;28;20315;-81
2022/06/30 07:08:05;;;;;;;1.85;1.67;;;25.80;99.90;;;;;;4975324;28;20212;-81
2022/06/30 07:10:32;;;;;;;2.05;1.90;;;25.60;99.90;;;;;;4975610;28;20201;-81
2022/06/30 07:12:59;;;;;;;1.60;1.50;;;25.60;99.90;;;;;;4975599;28;20216;-81
2022/06/30 07:15:26;;;;;;;1.58;1.48;;;25.70;99.90;;;;;;4975283;28;20217;-81
2022/06/30 07:17:54;;;;;;;4.05;1.95;;;25.80;99.90;;;;;;4975188;28;20205;-81
2022/06/30 07:20:20;;;;;;;1.42;1.27;;;25.70;99.90;;;;;;4975349;28;20566;-81
2022/06/30 07:22:47;;;;;;;1.90;1.58;;;25.80;99.90;;;;;;4975114;28;20556;-81
2022/06/30 07:25:14;;;;;;;1.48;1.38;;;25.80;99.90;;;;;;4975294;28;20213;-81
2022/06/30 07:27:41;;;;;;;1.50;1.40;;;25.80;99.90;;;;;;4975407;28;20210;-81
2022/06/30 07:30:11;;;;;;;1.45;1.35;;;25.90;99.90;;;;;;4975336;28;20212;-80
2022/06/30 07:32:37;;;;;;;1.77;1.67;;;26.00;99.90;;;;;;4975193;28;20252;-81
2022/06/30 07:35:07;;;;;;;1.63;1.50;;;26.20;99.90;;;;;;4974935;28;20193;-81
2022/06/30 07:37:37;;;;;;;2.05;1.77;;;26.20;99.90;;;;;;4974958;28;20688;-80
2022/06/30 07:40:05;;;;;;;1.60;1.42;;;26.30;99.90;;;;;;4975117;28;20214;-81
2022/06/30 07:42:32;;;;;;;2.55;2.35;;;26.40;99.90;;;;;;4975121;28;20212;-81
2022/06/30 07:44:59;;;;;;;2.42;1.55;;;26.50;99.90;;;;;;4975112;28;20618;-82
2022/06/30 07:47:26;;;;;;;1.42;1.33;;;26.50;99.90;;;;;;4974727;28;20225;-81
2022/06/30 07:49:53;;;;;;;1.65;1.52;;;26.70;99.90;;;;;;4974986;28;20210;-81
2022/06/30 07:52:21;;;;;;;1.55;1.02;;;27.00;99.90;;;;;;4974652;28;20685;-81
2022/06/30 07:54:48;;;;;;;2.33;2.08;;;27.30;99.90;;;;;;4974659;28;20198;-81
2022/06/30 07:57:15;;;;;;;1.73;1.63;;;27.70;99.90;;;;;;4974649;28;20236;-81
2022/06/30 07:59:42;;;;;;;1.70;1.60;;;27.90;99.90;;;;;;4975494;28;20288;-81
2022/06/30 08:02:08;;;;;;;2.30;2.13;;;28.10;99.90;;;;;;4974491;28;20564;-81
2022/06/30 08:04:35;;;;;;;1.17;1.15;;;28.20;99.90;;;;;;4975029;28;20208;-81
2022/06/30 08:07:03;;;;;;;1.50;1.40;;;28.50;99.90;;;;;;4974730;28;20320;-81
2022/06/30 08:09:31;;;;;;;1.65;1.42;;;28.70;99.90;;;;;;4974213;28;20759;-81
2022/06/30 08:11:59;;;;;;;1.70;1.60;;;28.80;99.90;;;;;;4974689;28;20197;-81
2022/06/30 08:14:26;;;;;;;2.63;2.10;;;29.00;99.90;;;;;;4974652;28;20262;-82
2022/06/30 08:16:53;;;;;;;2.20;1.65;;;29.00;99.90;;;;;;4975375;28;20567;-81
2022/06/30 08:19:20;;;;;;;1.02;1.02;;;29.00;99.90;;;;;;4974352;28;20202;-81
2022/06/30 08:21:47;;;;;;;1.67;1.50;;;29.00;99.90;;;;;;4974568;28;20221;-81
2022/06/30 08:24:14;;;;;;;1.50;1.40;;;29.00;99.90;;;;;;4974270;28;20209;-81
2022/06/30 08:26:42;;;;;;;1.48;1.38;;;29.00;99.90;;;;;;4974479;28;20228;-81
2022/06/30 08:29:11;;;;;;;1.30;1.20;;;29.00;99.90;;;;;;4974237;28;20669;-81
2022/06/30 08:31:38;;;;;;;2.63;1.30;;;29.10;99.90;;;;;;4974912;28;20558;-81
2022/06/30 08:34:05;;;;;;;1.20;1.02;;;29.20;99.90;;;;;;4974451;28;20227;-81
2022/06/30 08:36:31;;;;;;;3.20;1.20;;;29.30;99.90;;;;;;4974384;28;20225;-81
2022/06/30 08:38:58;;;;;;;1.35;1.25;;;29.70;99.90;;;;;;4974424;28;20205;-81
2022/06/30 08:44:13;;;;;;;1.83;1.20;;;29.60;99.90;;;;;;4974227;28;20190;-81
2022/06/30 08:46:40;;;;;;;4.82;1.20;;;29.50;99.90;;;;;;4974611;28;20227;-81
2022/06/30 08:49:07;;;;;;;1.55;1.45;;;29.70;99.90;;;;;;4974355;28;20207;-80
2022/06/30 08:51:36;;;;;;;1.42;1.33;;;29.60;99.90;;;;;;4974076;28;20227;-81
2022/06/30 08:54:03;;;;;;;1.85;1.75;;;29.50;99.90;;;;;;4974005;28;20205;-81
2022/06/30 08:56:32;;;;;;;1.33;1.23;;;29.40;99.90;;;;;;4974097;28;20253;-81
2022/06/30 08:58:59;;;;;;;1.67;1.58;;;29.50;99.90;;;;;;4973950;28;20205;-81
2022/06/30 09:01:28;;;;;;;1.50;1.40;;;29.60;99.90;;;;;;4974182;28;20229;-81
2022/06/30 09:03:56;;;;;;;1.50;1.40;;;29.50;99.90;;;;;;4974233;28;20209;-81
2022/06/30 09:06:23;;;;;;;2.80;1.00;;;29.90;99.90;;;;;;4974134;28;20229;-81
2022/06/30 09:08:50;;;;;;;1.52;1.42;;;29.80;99.90;;;;;;4973764;28;20239;-81
2022/06/30 09:11:18;;;;;;;2.35;0.98;;;29.70;99.70;;;;;;4974111;28;20208;-81
2022/06/30 09:13:48;;;;;;;1.75;1.65;;;29.60;99.90;;;;;;4974140;28;20217;-81
2022/06/30 09:16:17;;;;;;;1.42;1.30;;;29.50;99.80;;;;;;4974258;28;20609;-81
2022/06/30 09:18:46;;;;;;;1.40;1.30;;;29.50;99.90;;;;;;4974144;28;20210;-81
2022/06/30 09:21:17;;;;;;;1.35;1.20;;;29.70;98.10;;;;;;4974108;28;20221;-81
2022/06/30 09:23:45;;;;;;;1.55;1.27;;;29.60;96.40;;;;;;4974075;28;20216;-81
2022/06/30 09:26:18;;;;;;;1.30;1.20;;;29.40;98.80;;;;;;4977537;28;20229;-81
2022/06/30 09:28:46;;;;;;;1.20;1.20;;;29.70;98.60;;;;;;4977664;28;20198;-81
2022/06/30 09:31:14;;;;;;;1.15;1.10;;;29.60;98.20;;;;;;4977217;28;20288;-80
2022/06/30 09:33:44;;;;;;;1.45;1.10;;;29.50;98.70;;;;;;4977485;28;20217;-80
2022/06/30 09:36:23;;;;;;;1.15;1.10;;;29.50;98.40;;;;;;4977048;28;20222;-80
2022/06/30 09:39:01;;;;;;;4.15;1.52;;;29.50;99.40;;;;;;4977409;28;20206;-80
2022/06/30 09:41:29;;;;;;;4.10;1.10;;;29.50;98.70;;;;;;4976964;28;20213;-80
2022/06/30 09:43:56;;;;;;;1.55;1.45;;;29.50;97.70;;;;;;4977000;28;20205;-81
2022/06/30 09:46:23;;;;;;;0.90;0.90;;;29.60;95.20;;;;;;4976823;28;20241;-80
2022/06/30 09:48:50;;;;;;;1.40;1.30;;;29.60;95.90;;;;;;4977408;28;20206;-80
2022/06/30 09:51:17;;;;;;;1.88;1.05;;;29.60;97.30;;;;;;4977385;28;20205;-81
2022/06/30 09:54:05;;;;;;;1.00;1.00;;;29.70;93.30;;;;;;4977273;28;20216;-80
2022/06/30 09:56:32;;;;;;;1.38;1.27;;;29.50;93.30;;;;;;4976686;28;20598;-80
2022/06/30 09:58:58;;;;;;;1.85;1.75;;;29.30;95.20;;;;;;4976664;28;20207;-80
2022/06/30 10:01:25;;;;;;;0.85;0.85;;;29.20;94.70;;;;;;4977099;28;20229;-80
2022/06/30 10:03:59;;;;;;;1.20;1.00;;;29.30;94.50;;;;;;4976640;28;20549;-80
2022/06/30 10:06:27;;;;;;;1.20;1.10;;;29.20;93.70;;;;;;4976853;28;20227;-81
2022/06/30 10:08:57;;;;;;;1.52;1.40;;;29.10;94.20;;;;;;4976301;28;20722;-80
2022/06/30 10:11:24;;;;;;;1.83;1.70;;;29.10;94.50;;;;;;4976816;28;20229;-80
2022/06/30 10:13:52;;;;;;;1.17;1.08;;;29.10;96.20;;;;;;4976738;28;20206;-80
2022/06/30 10:16:22;;;;;;;1.20;1.10;;;29.20;96.30;;;;;;4976351;28;20327;-80
2022/06/30 10:18:50;;;;;;;1.02;1.02;;;29.20;93.20;;;;;;4976387;28;20207;-80
2022/06/30 10:21:17;;;;;;;1.33;1.17;;;29.20;94.40;;;;;;4976188;28;20593;-80
2022/06/30 10:23:44;;;;;;;1.40;1.02;;;29.40;93.60;;;;;;4976574;28;20195;-80
2022/06/30 10:28:53;;;;;;;1.95;1.77;;;29.50;93.40;;;;;;4975227;28;20203;-80
2022/06/30 10:31:25;;;;;;;1.58;1.48;;;29.50;93.80;;;;;;4976444;28;20207;-80
2022/06/30 10:34:01;;;;;;;1.60;1.50;;;29.40;94.50;;;;;;4976416;28;20191;-80
2022/06/30 10:36:32;;;;;;;1.30;1.20;;;29.40;94.00;;;;;;4975259;28;20235;-80
2022/06/30 10:39:04;;;;;;;1.20;1.10;;;29.40;94.40;;;;;;4976558;28;20190;-80
2022/06/30 10:41:32;;;;;;;1.30;1.20;;;29.30;94.40;;;;;;4976155;28;20219;-80
2022/06/30 10:44:16;;;;;;;1.92;1.60;;;29.20;94.30;;;;;;4975908;28;20203;-80
2022/06/30 10:47:06;;;;;;;1.48;1.38;;;29.30;95.50;;;;;;4976096;28;20226;-80
2022/06/30 10:49:33;;;;;;;1.10;1.00;;;29.40;94.80;;;;;;4976067;28;20219;-80
2022/06/30 10:52:21;;;;;;;1.60;1.50;;;29.30;95.30;;;;;;4976084;28;20226;-80
2022/06/30 10:54:49;;;;;;;1.85;1.75;;;29.50;94.70;;;;;;4976012;28;20197;-80
2022/06/30 10:57:17;;;;;;;1.05;1.05;;;29.60;94.00;;;;;;4976043;28;20239;-80
2022/06/30 10:59:44;;;;;;;1.30;1.20;;;29.70;94.80;;;;;;4975888;28;20207;-80
2022/06/30 11:02:25;;;;;;;1.40;1.30;;;30.10;94.50;;;;;;4975791;28;20309;-80
2022/06/30 11:05:12;;;;;;;1.58;1.48;;;30.40;94.10;;;;;;4975964;28;20571;-80
2022/06/30 11:07:39;;;;;;;1.33;1.25;;;30.70;93.10;;;;;;4975314;28;20213;-80
2022/06/30 11:10:27;;;;;;;2.80;1.13;;;30.60;92.00;;;;;;4975344;28;20320;-80
2022/06/30 11:12:57;;;;;;;1.40;1.38;;;30.50;93.10;;;;;;4975429;28;20190;-80
2022/06/30 11:15:52;;;;;;;1.85;1.60;;;30.50;91.60;;;;;;4975806;28;20221;-80
2022/06/30 11:18:19;;;;;;;1.58;1.48;;;30.40;91.60;;;;;;4975859;28;20248;-80
2022/06/30 11:20:46;;;;;;;2.90;1.38;;;30.10;92.00;;;;;;4975536;28;20214;-81
2022/06/30 11:23:15;;;;;;;0.95;0.95;;;29.80;93.00;;;;;;4975387;28;20225;-81
2022/06/30 11:28:29;;;;;;;1.17;1.10;;;29.40;93.10;;;;;;4975500;28;20208;-80
2022/06/30 11:30:56;;;;;;;1.05;1.02;;;29.40;94.00;;;;;;4975045;28;20599;-80
2022/06/30 11:33:23;;;;;;;1.83;1.50;;;29.40;93.70;;;;;;4975301;28;20202;-80
2022/06/30 11:36:01;;;;;;;2.05;1.95;;;29.50;94.00;;;;;;4975427;28;20226;-80
2022/06/30 11:38:28;;;;;;;1.52;1.42;;;29.50;94.00;;;;;;4975270;28;20198;-80
2022/06/30 11:41:54;;;;;;;1.85;1.70;;;29.60;93.30;;;;;;4975165;28;20206;-79
2022/06/30 11:43:49;;;;;;;1.75;1.55;;;29.70;92.40;;;;;;4974670;28;20202;-80
2022/06/30 11:46:16;;;;;;;1.45;1.20;;;29.40;92.50;;;;;;4975054;28;20232;-80
2022/06/30 11:48:43;;;;;;;1.23;1.10;;;29.00;93.30;;;;;;4974488;28;20552;-80
2022/06/30 11:51:11;;;;;;;1.58;1.48;;;28.70;94.40;;;;;;4974963;28;20209;-80
2022/06/30 11:53:40;;;;;;;2.00;1.80;;;28.60;93.60;;;;;;4974644;28;20669;-80
2022/06/30 11:56:06;;;;;;;1.88;1.75;;;28.40;94.50;;;;;;4974488;28;20732;-80
2022/06/30 11:58:33;;;;;;;1.95;1.77;;;28.30;94.60;;;;;;4974887;28;20220;-80
2022/06/30 12:01:15;;;;;;;1.20;1.10;;;28.10;94.90;;;;;;4974824;28;20206;-80
2022/06/30 12:03:43;;;;;;;1.77;1.05;;;27.90;96.30;;;;;;4974897;28;20186;-80
2022/06/30 12:06:11;;;;;;;1.58;1.55;;;27.90;95.40;;;;;;4974625;28;20260;-80
2022/06/30 12:08:38;;;;;;;1.63;1.52;;;27.90;95.40;;;;;;4974531;28;20245;-80
2022/06/30 12:11:06;;;;;;;1.50;1.40;;;28.20;95.40;;;;;;4974636;28;20186;-80
2022/06/30 12:13:33;;;;;;;1.70;1.60;;;28.30;95.50;;;;;;4974800;28;20209;-80
2022/06/30 12:16:05;;;;;;;3.17;1.60;;;28.20;97.10;;;;;;4974592;28;20229;-80
2022/06/30 12:18:32;;;;;;;2.30;1.27;;;28.10;96.80;;;;;;4974675;28;20215;-80
2022/06/30 12:20:59;;;;;;;3.92;1.98;;;28.20;95.80;;;;;;4974328;28;20198;-80
2022/06/30 12:23:26;;;;;;;1.33;1.23;;;28.30;95.40;;;;;;4974530;28;20248;-80
2022/06/30 12:25:53;;;;;;;1.92;1.75;;;28.30;96.30;;;;;;4974165;28;20232;-80
2022/06/30 12:28:20;;;;;;;1.67;1.58;;;28.40;95.20;;;;;;4974766;28;20205;-80
2022/06/30 12:30:47;;;;;;;1.60;1.20;;;28.50;96.60;;;;;;4974530;28;20209;-81
2022/06/30 12:33:15;;;;;;;2.25;1.60;;;28.50;93.60;;;;;;4974519;28;20201;-80
2022/06/30 12:35:42;;;;;;;2.13;1.98;;;28.50;94.00;;;;;;4974381;28;20233;-80
2022/06/30 12:38:13;;;;;;;1.58;1.48;;;28.40;94.70;;;;;;4974121;28;20212;-80
2022/06/30 12:40:41;;;;;;;2.40;2.20;;;28.40;95.40;;;;;;4974104;28;20595;-81
2022/06/30 12:43:08;;;;;;;1.50;1.40;;;28.30;94.50;;;;;;4974104;28;20228;-80
2022/06/30 12:45:46;;;;;;;2.13;2.03;;;28.20;95.20;;;;;;4974446;28;20225;-81
2022/06/30 12:48:36;;;;;;;1.83;1.73;;;28.20;95.40;;;;;;4974552;28;20663;-80
2022/06/30 12:51:04;;;;;;;2.15;1.95;;;28.30;94.90;;;;;;4974511;28;20201;-78
2022/06/30 12:53:31;;;;;;;1.38;1.27;;;28.30;95.10;;;;;;4974376;28;20201;-80
2022/06/30 12:56:03;;;;;;;2.22;2.03;;;28.20;95.00;;;;;;4974793;28;20230;-80
2022/06/30 12:58:48;;;;;;;2.15;1.40;;;28.20;94.90;;;;;;4974313;28;20284;-80
2022/06/30 13:01:16;;;;;;;2.15;2.05;;;28.00;94.60;;;;;;4977803;28;20676;-80
2022/06/30 13:03:52;;;;;;;2.03;1.58;;;27.90;95.30;;;;;;4978304;28;20221;-80
2022/06/30 13:06:21;;;;;;;1.45;1.35;;;27.80;96.30;;;;;;4977780;28;20228;-80
2022/06/30 13:08:49;;;;;;;2.05;1.90;;;27.60;97.70;;;;;;4977769;28;20241;-80
2022/06/30 13:11:17;;;;;;;3.88;1.38;;;27.50;96.40;;;;;;4977688;28;20236;-80
2022/06/30 13:13:45;;;;;;;1.80;1.70;;;27.50;96.50;;;;;;4977578;28;20672;-80
2022/06/30 13:16:13;;;;;;;2.00;1.80;;;27.50;96.10;;;;;;4978043;28;20230;-80